V A Hospital, New Jersey
Current Conditions -  °F | °C
As of 11:27 AM on Wednesday 26 Nov 2014 (Local Time) from KEWR Reporting Station
Light Snow Light Snow  
Wind Chill: 25°   Ceiling: 400
Heat Index: 34°   Visibility: 2mi
Dew Point: 32°   Wind: 13mph
Humidity: 93%   Direction: 20°NNE
Pressure: 30.04"   Gusts: NA
Location:  40.7556°N, 74.2185°W
Report Text: KEWR 261627Z 02011KT 2SM -SNRA BR BKN004 OVC010 01/00 A3004 RMK AO2 P0007
Loading
Personal Weather Stations






























Interactive Weather Map New forecast layout! Learn more

10-Day Weather Forecast

Advertisements
Track Severe Weather on mobile